AirNav   Duncan Aviation - Near you to keep you flying
 
 545 users online  

LA72 Iberia Medical Center North Heliport
New Iberia, Louisiana, USA

GOING TO NEW IBERIA?


FAA INFORMATION EFFECTIVE 08 SEPTEMBER 2022

Location

FAA Identifier: LA72
Lat/Long: 30-00-23.0700N 091-47-38.0200W
30-00.384500N 091-47.633667W
30.0064083,-91.7938944
(estimated)
Elevation: 14 ft. / 4 m (estimated)
Variation: 04E (1985)
From city: 1 mile W of NEW IBERIA, LA
Time zone: UTC -5 (UTC -6 during Standard Time)
Zip code: 70563

Heliport Operations

Heliport use: Private use, MEDICAL.
Activation date: 06/1989
Control tower: no
ARTCC: HOUSTON CENTER
FSS: DE RIDDER FLIGHT SERVICE STATION
Attendance: CONTINUOUS
Wind indicator: lighted
Segmented circle: no
Lights: SS-SR
Beacon: white-green-yellow (heliport)
Operates sunset to sunrise.

Heliport Communications

WX ASOS at ARA (5 nm W): 133.325 (337-365-0128)
WX AWOS-3 at IYA (15 nm W): 118.875 (337-892-0526)
WX ASOS at LFT (16 nm NW): 134.05 ((337)262-2757)

Nearby radio navigation aids

VOR radial/distance  VOR name  Freq  Var
LFTr134/15.3LAFAYETTE VORTAC109.8003E
LLAr052/36.5WHITE LAKE VOR/DME114.9504E
LSUr216/38.7FIGHTING TIGER VORTAC116.5006E

 
NDB name  Hdg/Dist  Freq  Var  ID
ABBEVILLE099/17.423002EBNZ -... -. --..

Heliport Services

Runway Information

Helipad H1

Dimensions: 40 x 40 ft. / 12 x 12 m
Surface: concrete
Runway edge lights: PERI
Latitude: 30-00.384500N
Longitude: 091-47.633667W
Elevation: 14.0 ft.
Traffic pattern: leftleft

Heliport Ownership and Management from official FAA records

Ownership: Privately-owned
Owner: IBERIA MEDICAL CENTER NORTH
P. O. BOX 11210
NEW IBERIA, LA 70563-1210
Phone 337-365-7311
Manager: JOHNNY LEBLANC, DIRECTOR
P. O. BOX 11210
NEW IBERIA, LA 70563-1210
Phone 337-374-7596
JOHNNY LEBLANC, 337-374-7596

Additional Remarks

FOR CD CTC LAFAYETTE APCH AT 337-262-2729, WHEN APCH CLSD CTC HOUSTON ARTCC AT 281-230-5622.

Instrument Procedures

There are no published instrument procedures at LA72.

Some nearby airports with instrument procedures:

KARA - Acadiana Regional Airport (5 nm W)
KIYA - Abbeville Chris Crusta Memorial Airport (15 nm W)
KLFT - Lafayette Regional Airport/Paul Fournet Field (16 nm NW)
KPTN - Harry P Williams Memorial Airport (30 nm SE)
KOPL - St Landry Parish Airport-Ahart Field (37 nm NW)
 
Loc | Ops | Rwys | IFR | FBO | Links
Com | Nav | Svcs | Stats | Notes
Area around LA72 (Iberia Medical Center North Heliport)
 
Road maps at: MapQuest Bing Google
 
Aerial photo
No photo
 
Sectional chart

 
Airport distance calculator
Flying to Iberia Medical Center North Heliport? Find the distance to fly.

From to LA72

Sunrise and sunset
Times for 02-Oct-2022
 Local
(UTC-5)
 Zulu
(UTC)
Morning civil twilight06:3811:38
Sunrise07:0212:02
Sunset18:5123:51
Evening civil twilight19:1500:15

Current date and time
Zulu (UTC)  02-Oct-2022 11:26:13
Local (UTC-5)  02-Oct-2022 06:26:13
 
METAR
KARA 
5nm W 
021053Z 33003KT 10SM CLR 12/10 A3006 RMK AO2 SLP177 T01220100
K0R3 
15nm W 
118.875
No observation available
KIYA 
15nm W 
021115Z AUTO 00000KT 10SM CLR 09/07 A3007 RMK AO2 T00900068
KLFT 
16nm NW 
021053Z 00000KT 10SM CLR 13/10 A3006 RMK AO2 SLP180 T01330100
TAF
KARA 
5nm W 
020520Z 0206/0306 VRB03KT P6SM SKC FM021500 01007KT P6SM SKC FM030100 VRB03KT P6SM SKC
KLFT 
16nm NW 
020520Z 0206/0306 VRB04KT P6SM SKC FM021500 01007KT P6SM SKC FM030100 VRB03KT P6SM SKC
NOTAMs
Click for the latest NOTAMs
NOTAMs are issued by the DoD/FAA and will open in a separate window not controlled by AirNav.

 

 
 

Would you like to see your business listed on this page?

 If your business provides an interesting product or service to pilots, flight crews, aircraft, or users of the Iberia Medical Center North Heliport, you should consider listing it here.  To start the listing process, click on the button below
 
Add a business
 

Other Pages about Iberia Medical Center North Heliport

Update a link
 
Copyright © AirNav, LLC. All rights reserved. Privacy Policy  Contact